Time;durP1;ratioP1;P1;durP2;ratioP2;P2;SDS_P1;SDS_P2;PMS_P1;PMS_P2;Temp;Humidity;BMP_temperature;BMP_pressure;BME280_temperature;BME280_humidity;BME280_pressure;Samples;Min_cycle;Max_cycle;Signal;HPM_P1;HPM_P2
2021/05/21 00:00:43;;;;;;;42.88;6.43;;;11.80;99.90;;;;;;6124686;23;20018;-90
2021/05/21 07:33:25;;;;;;;26.98;4.75;;;13.70;99.90;;;;;;6208424;22;20013;-88
2021/05/21 07:35:52;;;;;;;23.98;4.25;;;13.70;99.90;;;;;;6217098;23;20074;-88
2021/05/21 07:38:19;;;;;;;26.50;5.15;;;13.80;99.90;;;;;;6215545;23;20024;-88
2021/05/21 07:40:46;;;;;;;24.00;4.93;;;13.90;99.90;;;;;;6216228;23;20091;-91
2021/05/21 07:43:13;;;;;;;25.20;4.32;;;14.00;99.90;;;;;;6216073;23;20024;-88
2021/05/21 07:45:41;;;;;;;27.27;4.93;;;14.00;99.90;;;;;;6215608;23;20016;-90
2021/05/21 07:48:08;;;;;;;19.88;4.68;;;13.90;99.90;;;;;;6214786;23;20074;-88
2021/05/21 07:50:38;;;;;;;19.88;3.95;;;13.80;99.90;;;;;;6215407;23;20016;-88
2021/05/21 07:53:10;;;;;;;23.88;4.53;;;13.70;99.90;;;;;;6217513;23;20020;-92
2021/05/21 07:55:37;;;;;;;20.60;4.50;;;13.60;99.90;;;;;;6216702;23;20024;-90
2021/05/21 07:58:04;;;;;;;28.73;5.55;;;13.60;99.90;;;;;;6218110;23;20012;-89
2021/05/21 08:00:30;;;;;;;21.27;4.30;;;13.60;99.90;;;;;;6216464;23;20024;-89
2021/05/21 08:02:57;;;;;;;23.52;5.47;;;13.70;99.90;;;;;;6214140;23;20075;-91
2021/05/21 08:05:24;;;;;;;28.17;5.00;;;13.90;99.90;;;;;;6213043;23;20028;-89
2021/05/21 08:07:51;;;;;;;26.85;4.28;;;14.00;99.90;;;;;;6213526;23;20082;-89
2021/05/21 08:10:18;;;;;;;21.50;4.25;;;14.00;99.90;;;;;;6212811;23;20071;-89
2021/05/21 08:12:45;;;;;;;23.80;4.20;;;13.80;99.90;;;;;;6213811;23;20025;-90
2021/05/21 08:15:13;;;;;;;21.65;4.53;;;13.80;99.90;;;;;;6213455;23;20012;-91
2021/05/21 08:17:39;;;;;;;20.50;4.53;;;13.80;99.90;;;;;;6214193;23;20071;-89
2021/05/21 08:20:11;;;;;;;18.92;4.55;;;13.80;99.90;;;;;;6215176;23;20025;-89
2021/05/21 08:22:38;;;;;;;23.63;4.45;;;14.00;99.90;;;;;;6213927;23;20017;-89
2021/05/21 08:25:06;;;;;;;25.80;4.90;;;14.10;99.90;;;;;;6214477;23;20039;-89
2021/05/21 08:27:33;;;;;;;19.73;4.40;;;14.40;99.90;;;;;;6215203;23;20016;-93
2021/05/21 08:30:01;;;;;;;25.52;4.57;;;14.40;99.90;;;;;;6215490;23;20016;-90
2021/05/21 08:32:28;;;;;;;28.67;5.18;;;14.50;99.90;;;;;;6214653;23;20027;-90
2021/05/21 08:34:55;;;;;;;30.92;5.13;;;14.50;99.90;;;;;;6215737;23;20347;-90
2021/05/21 08:37:21;;;;;;;21.52;4.63;;;14.50;99.90;;;;;;6216421;23;20098;-88
2021/05/21 08:39:49;;;;;;;25.55;5.32;;;14.50;99.90;;;;;;6215190;23;20020;-86
2021/05/21 08:42:17;;;;;;;23.90;5.10;;;14.50;99.90;;;;;;6215077;23;20016;-90
2021/05/21 08:44:49;;;;;;;23.52;4.65;;;14.50;99.90;;;;;;6215493;23;20016;-90
2021/05/21 08:47:17;;;;;;;30.98;4.50;;;14.60;99.90;;;;;;6216180;23;20024;-87
2021/05/21 08:49:44;;;;;;;22.48;4.50;;;14.60;99.90;;;;;;6216296;23;20013;-90
2021/05/21 08:52:11;;;;;;;20.13;4.35;;;14.70;99.90;;;;;;6216342;23;20016;-89
2021/05/21 08:54:41;;;;;;;14.40;3.08;;;14.60;99.90;;;;;;6215060;23;20375;-90
2021/05/21 08:57:09;;;;;;;15.75;3.05;;;14.40;99.90;;;;;;6216638;23;20021;-89
2021/05/21 08:59:36;;;;;;;15.80;3.75;;;14.30;99.90;;;;;;6215381;23;20020;-91
2021/05/21 09:02:06;;;;;;;18.20;2.80;;;14.30;99.90;;;;;;6215394;23;20021;-90
2021/05/21 09:04:45;;;;;;;11.63;2.58;;;14.30;99.90;;;;;;6216215;23;20470;-89
2021/05/21 09:07:38;;;;;;;;;;;14.30;99.90;;;;;;6216366;23;20091;-88
2021/05/21 09:10:24;;;;;;;16.98;3.17;;;14.40;99.90;;;;;;6209857;23;19966;-91
2021/05/21 09:12:53;;;;;;;15.43;3.42;;;14.60;99.90;;;;;;6215701;23;20020;-89
2021/05/21 09:15:22;;;;;;;13.10;3.35;;;14.70;99.90;;;;;;6214869;23;20040;-90
2021/05/21 09:18:00;;;;;;;15.77;2.97;;;14.80;99.90;;;;;;6214942;23;20020;-90
2021/05/21 09:20:32;;;;;;;14.98;3.40;;;14.80;99.90;;;;;;6215808;23;20012;-88
2021/05/21 09:23:02;;;;;;;22.15;3.80;;;14.70;99.90;;;;;;6215361;23;20017;-88
2021/05/21 09:25:51;;;;;;;21.73;3.50;;;14.60;99.90;;;;;;6215744;23;21121;-87
2021/05/21 09:28:35;;;;;;;20.30;3.88;;;14.70;99.90;;;;;;6214827;23;20050;-88
2021/05/21 09:31:24;;;;;;;24.70;4.70;;;14.70;99.90;;;;;;6214861;23;20016;-88
2021/05/21 09:33:52;;;;;;;;;;;14.60;99.90;;;;;;6216575;23;20399;-90
2021/05/21 09:36:27;;;;;;;24.73;4.00;;;14.40;99.90;;;;;;6215716;23;19920;-89
2021/05/21 09:38:54;;;;;;;25.08;3.85;;;14.40;99.90;;;;;;6216583;23;20087;-87
2021/05/21 09:41:45;;;;;;;20.73;4.50;;;14.40;99.90;;;;;;6215029;23;20047;-90
2021/05/21 09:44:12;;;;;;;22.85;4.82;;;14.60;99.90;;;;;;6215769;23;20082;-88
2021/05/21 09:46:41;;;;;;;20.73;4.07;;;14.70;99.90;;;;;;6214777;23;20016;-90
2021/05/21 09:49:33;;;;;;;17.60;3.97;;;14.70;99.90;;;;;;6214118;23;20399;-88
2021/05/21 09:52:03;;;;;;;28.58;4.65;;;14.60;99.90;;;;;;6215837;23;20492;-89
2021/05/21 09:54:49;;;;;;;21.73;4.15;;;14.70;99.90;;;;;;6215003;23;20459;-88
2021/05/21 09:57:16;;;;;;;21.80;5.00;;;14.80;99.90;;;;;;6214989;23;20387;-89
2021/05/21 09:59:46;;;;;;;17.35;3.78;;;14.80;99.90;;;;;;6215924;23;20692;-88
2021/05/21 10:02:22;;;;;;;17.42;4.32;;;14.50;99.90;;;;;;6215238;23;20024;-88
2021/05/21 10:04:54;;;;;;;17.35;4.20;;;14.20;99.90;;;;;;6214262;23;20016;-88
2021/05/21 10:07:22;;;;;;;25.13;4.30;;;13.80;99.90;;;;;;6213579;23;20075;-87
2021/05/21 10:09:50;;;;;;;21.88;4.10;;;13.80;99.90;;;;;;6214204;23;20075;-89
2021/05/21 10:12:18;;;;;;;15.13;3.30;;;13.80;99.90;;;;;;6213703;23;20083;-88
2021/05/21 10:14:49;;;;;;;19.17;3.87;;;13.80;99.90;;;;;;6214003;23;20017;-88
2021/05/21 10:17:25;;;;;;;18.10;3.50;;;14.00;99.90;;;;;;6213315;23;20313;-89
2021/05/21 10:19:56;;;;;;;22.25;4.07;;;14.10;99.90;;;;;;6214425;23;20016;-91
2021/05/21 10:22:35;;;;;;;19.85;3.75;;;14.20;99.90;;;;;;6214352;23;20028;-89
2021/05/21 10:25:12;;;;;;;17.30;3.30;;;14.50;99.90;;;;;;6214651;23;20075;-88
2021/05/21 10:27:43;;;;;;;19.67;3.40;;;14.60;99.90;;;;;;6213984;23;20016;-88
2021/05/21 10:30:11;;;;;;;14.13;3.35;;;14.60;99.90;;;;;;6214306;23;20399;-90
2021/05/21 10:32:38;;;;;;;17.27;3.28;;;14.60;99.90;;;;;;6213863;23;20412;-90
2021/05/21 10:35:15;;;;;;;17.40;3.20;;;14.60;99.90;;;;;;6215541;23;20591;-87
2021/05/21 10:37:44;;;;;;;20.45;4.05;;;14.60;99.90;;;;;;6214184;23;20067;-90
2021/05/21 10:40:27;;;;;;;22.83;4.30;;;14.60;99.90;;;;;;6213671;23;20071;-93
2021/05/21 10:42:54;;;;;;;18.98;3.63;;;14.70;99.90;;;;;;6215911;23;20600;-89
2021/05/21 10:45:23;;;;;;;16.88;3.08;;;14.80;99.90;;;;;;6214950;23;20025;-89
2021/05/21 10:47:57;;;;;;;15.75;4.05;;;15.00;99.90;;;;;;6215429;23;20063;-91
2021/05/21 10:50:33;;;;;;;18.70;3.85;;;15.10;99.90;;;;;;6213328;23;20026;-90
2021/05/21 10:53:07;;;;;;;14.45;3.45;;;15.00;99.90;;;;;;6212077;23;20028;-89
2021/05/21 10:55:53;;;;;;;30.52;4.85;;;14.80;99.90;;;;;;6212987;23;20024;-88
2021/05/21 10:58:29;;;;;;;19.45;3.13;;;14.70;99.90;;;;;;6212067;23;20029;-88
2021/05/21 11:01:15;;;;;;;22.77;4.43;;;14.70;99.90;;;;;;6212772;23;20016;-91
2021/05/21 11:04:06;;;;;;;21.27;3.55;;;14.70;99.90;;;;;;6212835;23;20028;-89
2021/05/21 11:06:42;;;;;;;21.08;3.70;;;14.80;99.90;;;;;;6212015;23;20613;-89
2021/05/21 11:09:12;;;;;;;17.75;3.40;;;14.90;99.90;;;;;;6210853;23;20021;-87
2021/05/21 11:11:52;;;;;;;17.80;3.65;;;14.90;99.90;;;;;;6210929;23;20016;-88
2021/05/21 11:14:31;;;;;;;25.35;4.07;;;15.00;99.90;;;;;;6210661;23;20036;-90
2021/05/21 11:17:09;;;;;;;25.23;4.00;;;15.10;99.90;;;;;;6211498;23;20087;-89
2021/05/21 11:19:37;;;;;;;19.13;3.83;;;15.10;99.90;;;;;;6214456;23;20032;-89
2021/05/21 11:22:23;;;;;;;23.97;3.60;;;15.30;99.90;;;;;;6215486;23;20075;-91
2021/05/21 11:24:54;;;;;;;18.70;3.13;;;15.40;99.90;;;;;;6213655;23;20022;-89
2021/05/21 11:27:22;;;;;;;18.20;3.05;;;15.50;99.90;;;;;;6213843;23;20440;-90
2021/05/21 11:29:52;;;;;;;19.88;3.20;;;15.50;99.90;;;;;;6214750;23;20024;-91
2021/05/21 11:32:22;;;;;;;17.17;3.70;;;15.50;99.90;;;;;;6212930;23;20024;-90
2021/05/21 11:34:49;;;;;;;19.90;3.45;;;15.60;99.90;;;;;;6214587;23;20017;-93
2021/05/21 11:37:27;;;;;;;21.45;5.05;;;15.80;99.90;;;;;;6213799;23;20075;-92
2021/05/21 11:39:56;;;;;;;14.13;3.00;;;15.90;99.90;;;;;;6215532;23;20043;-92
2021/05/21 11:42:26;;;;;;;13.50;3.35;;;15.90;99.90;;;;;;6213376;23;20031;-92
2021/05/21 11:44:55;;;;;;;21.23;3.45;;;15.90;99.90;;;;;;6213768;23;20529;-91
2021/05/21 11:47:29;;;;;;;18.55;3.30;;;15.80;99.90;;;;;;6214496;23;20021;-89
2021/05/21 11:49:59;;;;;;;18.83;3.65;;;15.60;99.90;;;;;;6215590;23;20012;-90
2021/05/21 11:52:26;;;;;;;14.52;2.95;;;15.60;99.90;;;;;;6214216;23;20020;-91
2021/05/21 11:54:56;;;;;;;19.08;3.55;;;15.60;99.90;;;;;;6216102;23;20016;-88
2021/05/21 11:57:25;;;;;;;19.10;3.80;;;15.50;99.90;;;;;;6214366;23;20067;-89
2021/05/21 11:59:54;;;;;;;17.65;3.40;;;15.30;99.90;;;;;;6214238;23;20020;-92
2021/05/21 12:02:21;;;;;;;22.65;4.00;;;15.30;99.90;;;;;;6215387;23;20017;-90
2021/05/21 12:04:50;;;;;;;20.48;3.85;;;15.30;99.90;;;;;;6219626;23;20024;-90
2021/05/21 12:07:27;;;;;;;22.70;3.83;;;15.20;99.90;;;;;;6215398;23;20521;-90
2021/05/21 12:10:02;;;;;;;15.02;3.13;;;15.20;99.90;;;;;;6215296;23;20021;-90
2021/05/21 12:12:32;;;;;;;17.75;3.13;;;15.20;99.90;;;;;;6217934;23;20020;-91
2021/05/21 12:15:25;;;;;;;19.92;4.15;;;15.30;99.90;;;;;;6216605;23;20459;-90
2021/05/21 12:17:52;;;;;;;17.67;3.38;;;15.40;99.90;;;;;;6214709;23;20452;-91
2021/05/21 12:20:21;;;;;;;15.60;3.70;;;15.50;99.90;;;;;;6215781;23;20087;-90
2021/05/21 12:23:05;;;;;;;20.45;4.32;;;15.40;99.90;;;;;;6213700;23;20077;-88
2021/05/21 12:25:35;;;;;;;18.48;3.88;;;15.50;99.90;;;;;;6215503;23;20023;-92
2021/05/21 12:28:04;;;;;;;20.52;4.47;;;15.60;99.90;;;;;;6215252;23;20099;-89
2021/05/21 12:30:31;;;;;;;20.23;3.35;;;15.60;99.90;;;;;;6215180;23;20020;-92
2021/05/21 12:33:00;;;;;;;18.83;4.68;;;15.50;99.90;;;;;;6215631;23;20355;-91
2021/05/21 12:35:41;;;;;;;17.83;3.78;;;15.60;99.90;;;;;;6214791;23;20092;-92
2021/05/21 12:38:10;;;;;;;18.45;3.33;;;15.60;99.90;;;;;;6213330;23;20017;-92
2021/05/21 12:40:52;;;;;;;21.77;4.18;;;15.60;99.90;;;;;;6215406;23;20069;-91
2021/05/21 12:43:19;;;;;;;18.63;3.67;;;15.60;99.90;;;;;;6215920;23;20413;-89
2021/05/21 12:46:04;;;;;;;20.13;3.63;;;15.60;99.90;;;;;;6216511;23;20464;-88
2021/05/21 12:48:39;;;;;;;21.17;3.55;;;15.50;99.90;;;;;;6216062;23;20084;-89
2021/05/21 12:51:16;;;;;;;18.45;4.47;;;15.40;99.90;;;;;;6215460;23;20031;-91
2021/05/21 12:53:43;;;;;;;24.35;4.57;;;15.50;99.90;;;;;;6216886;23;20533;-88
2021/05/21 12:56:34;;;;;;;18.92;3.58;;;15.40;99.90;;;;;;6215603;23;20012;-90
2021/05/21 12:59:10;;;;;;;18.48;3.35;;;15.50;99.90;;;;;;6215913;23;20046;-89
2021/05/21 13:01:42;;;;;;;18.17;3.95;;;15.50;99.90;;;;;;6215512;23;20024;-90
2021/05/21 13:04:14;;;;;;;21.42;3.67;;;15.60;99.90;;;;;;6215834;23;20075;-91
2021/05/21 13:06:42;;;;;;;22.83;3.75;;;15.70;99.90;;;;;;6215105;23;20013;-90
2021/05/21 13:09:11;;;;;;;17.75;3.22;;;15.70;99.90;;;;;;6216115;23;20096;-91
2021/05/21 13:11:54;;;;;;;14.25;3.00;;;15.70;99.90;;;;;;6216327;23;20501;-91
2021/05/21 13:14:24;;;;;;;17.10;3.47;;;15.70;99.90;;;;;;6215010;23;20036;-91
2021/05/21 13:16:54;;;;;;;20.85;3.55;;;15.80;99.90;;;;;;6216481;23;20017;-93
2021/05/21 13:19:23;;;;;;;18.58;3.30;;;15.70;99.90;;;;;;6216829;23;20080;-92
2021/05/21 13:21:53;;;;;;;19.27;3.95;;;15.90;99.90;;;;;;6216924;23;20392;-92
2021/05/21 13:24:22;;;;;;;18.90;3.50;;;16.10;99.90;;;;;;6215673;23;20024;-94
2021/05/21 13:26:56;;;;;;;16.45;3.65;;;16.20;99.90;;;;;;6216041;23;20021;-92
2021/05/21 13:29:23;;;;;;;21.42;4.05;;;16.30;99.90;;;;;;6214552;23;20025;-91
2021/05/21 13:31:51;;;;;;;16.00;3.90;;;16.30;99.90;;;;;;6216767;23;20025;-93
2021/05/21 13:34:18;;;;;;;15.80;3.28;;;16.30;99.90;;;;;;6216584;23;20083;-91
2021/05/21 13:36:45;;;;;;;18.13;2.67;;;16.30;99.90;;;;;;6216294;23;20079;-90
2021/05/21 13:39:12;;;;;;;14.07;3.00;;;16.50;99.90;;;;;;6214970;23;20094;-90
2021/05/21 13:41:39;;;;;;;18.08;2.95;;;16.40;99.90;;;;;;6216882;23;20376;-92
2021/05/21 13:44:07;;;;;;;15.50;3.63;;;16.40;99.90;;;;;;6214638;23;20021;-91
2021/05/21 13:46:34;;;;;;;16.00;2.90;;;16.30;99.90;;;;;;6216499;23;20036;-93
2021/05/21 13:49:01;;;;;;;11.23;3.00;;;16.20;99.90;;;;;;6215194;23;20027;-91
2021/05/21 13:51:29;;;;;;;16.63;3.20;;;16.20;99.90;;;;;;6214523;23;20025;-91
2021/05/21 13:53:56;;;;;;;14.85;2.92;;;16.30;99.90;;;;;;6216275;23;20112;-92
2021/05/21 13:56:42;;;;;;;17.27;3.83;;;16.10;99.90;;;;;;6214582;23;20036;-92
2021/05/21 13:59:09;;;;;;;15.98;3.42;;;16.10;99.90;;;;;;6214410;23;20024;-92
2021/05/21 14:01:36;;;;;;;20.08;3.92;;;16.10;99.90;;;;;;6214863;23;20526;-93
2021/05/21 14:04:04;;;;;;;13.95;3.25;;;16.10;99.90;;;;;;6214730;23;20336;-93
2021/05/21 14:06:31;;;;;;;17.38;3.60;;;16.30;99.90;;;;;;6214966;23;20029;-92
2021/05/21 14:08:58;;;;;;;13.48;3.13;;;16.30;99.90;;;;;;6215197;23;20480;-91
2021/05/21 14:11:24;;;;;;;19.10;3.30;;;16.20;99.90;;;;;;6212923;23;20033;-91
2021/05/21 14:13:51;;;;;;;16.02;2.65;;;16.20;99.90;;;;;;6214683;23;20074;-92
2021/05/21 14:16:18;;;;;;;17.73;3.03;;;16.20;99.90;;;;;;6215443;23;20480;-89
2021/05/21 14:18:45;;;;;;;19.35;3.38;;;16.00;99.90;;;;;;6215071;23;20021;-89
2021/05/21 14:21:12;;;;;;;18.75;3.63;;;15.80;99.90;;;;;;6216000;23;20020;-88
2021/05/21 14:23:46;;;;;;;18.00;3.55;;;15.70;99.90;;;;;;6214497;23;20048;-91
2021/05/21 14:26:15;;;;;;;20.65;4.18;;;15.70;99.90;;;;;;6216714;23;20097;-91
2021/05/21 14:28:42;;;;;;;15.13;3.03;;;15.60;99.90;;;;;;6214474;23;20542;-92
2021/05/21 14:31:10;;;;;;;19.08;2.97;;;15.50;99.90;;;;;;6211430;23;20078;-90
2021/05/21 14:33:43;;;;;;;15.48;3.28;;;15.30;99.90;;;;;;6209961;23;20545;-89
2021/05/21 14:36:10;;;;;;;21.55;3.35;;;15.20;99.90;;;;;;6212214;23;20356;-88
2021/05/21 14:38:55;;;;;;;17.15;3.15;;;15.20;99.90;;;;;;6211548;23;20078;-93
2021/05/21 14:41:22;;;;;;;13.65;3.22;;;15.30;99.90;;;;;;6211003;23;20357;-89
2021/05/21 14:43:51;;;;;;;15.05;3.33;;;15.30;99.90;;;;;;6211314;23;20070;-90
2021/05/21 14:46:20;;;;;;;17.48;3.25;;;15.40;99.90;;;;;;6212041;23;20020;-90
2021/05/21 14:48:47;;;;;;;14.55;3.30;;;15.30;99.90;;;;;;6212779;23;20115;-91
2021/05/21 14:51:24;;;;;;;22.30;3.30;;;15.30;99.90;;;;;;6212652;23;20404;-89
2021/05/21 14:53:52;;;;;;;20.38;3.85;;;15.20;99.90;;;;;;6210805;23;20071;-90
2021/05/21 14:56:21;;;;;;;22.70;3.55;;;15.20;99.90;;;;;;6209963;23;20020;-88
2021/05/21 14:58:51;;;;;;;19.08;3.47;;;15.10;99.90;;;;;;6210833;23;20021;-90
2021/05/21 15:01:22;;;;;;;17.55;3.70;;;15.10;99.90;;;;;;6212347;23;20024;-90
2021/05/21 15:03:52;;;;;;;19.83;3.95;;;15.20;99.90;;;;;;6210324;23;20020;-89
2021/05/21 15:06:23;;;;;;;18.70;3.13;;;15.20;99.90;;;;;;6209791;23;20023;-90
2021/05/21 15:08:56;;;;;;;19.10;3.22;;;15.30;99.90;;;;;;6212267;23;20091;-89
2021/05/21 15:11:26;;;;;;;22.13;3.70;;;15.40;99.90;;;;;;6212036;23;20027;-89
2021/05/21 15:13:54;;;;;;;21.25;4.22;;;15.30;99.90;;;;;;6212016;23;20380;-90
2021/05/21 15:26:51;;;;;;;15.65;2.55;;;15.50;99.90;;;;;;6211411;23;20504;-88
2021/05/21 15:29:19;;;;;;;9.65;1.98;;;15.50;99.90;;;;;;6209053;23;20025;-90
2021/05/21 15:31:48;;;;;;;10.45;2.30;;;15.50;99.90;;;;;;6210148;23;20023;-92
2021/05/21 15:34:18;;;;;;;12.60;1.90;;;15.40;99.90;;;;;;6210080;23;20409;-88
2021/05/21 15:36:50;;;;;;;10.85;2.72;;;15.30;99.90;;;;;;6211330;23;20388;-89
2021/05/21 15:39:18;;;;;;;19.42;2.88;;;15.40;99.90;;;;;;6212581;23;20069;-90
2021/05/21 15:47:18;;;;;;;17.20;2.88;;;15.30;99.90;;;;;;6149695;23;20037;-90
2021/05/21 15:54:51;;;;;;;27.30;3.70;;;15.30;99.90;;;;;;6149776;23;20005;-90
2021/05/21 16:00:05;;;;;;;20.13;3.28;;;15.40;99.90;;;;;;6150552;23;20106;-91
2021/05/21 16:02:31;;;;;;;24.73;3.27;;;15.50;99.90;;;;;;6126151;23;20029;-91
2021/05/21 16:04:58;;;;;;;19.80;3.45;;;15.30;99.90;;;;;;6151471;23;20030;-91
2021/05/21 16:07:25;;;;;;;15.48;3.17;;;15.20;99.90;;;;;;6150318;23;20017;-92
2021/05/21 16:09:54;;;;;;;31.38;4.53;;;15.10;99.90;;;;;;6150869;23;20022;-90
2021/05/21 16:12:21;;;;;;;22.15;3.83;;;15.10;99.90;;;;;;6132672;23;20036;-91
2021/05/21 16:14:50;;;;;;;16.92;3.60;;;14.90;99.90;;;;;;6125730;23;20018;-91
2021/05/21 16:17:17;;;;;;;;;;;15.00;99.90;;;;;;6150904;23;20671;-92
2021/05/21 16:19:44;;;;;;;19.25;3.28;;;14.90;99.90;;;;;;6126098;23;19916;-88
2021/05/21 16:22:12;;;;;;;16.83;2.97;;;14.80;99.90;;;;;;6192749;23;20059;-90
2021/05/21 16:24:43;;;;;;;21.02;3.58;;;14.60;99.90;;;;;;6211986;23;20083;-89
2021/05/21 16:27:10;;;;;;;13.80;2.88;;;14.70;99.90;;;;;;6212267;23;20017;-91
2021/05/21 16:29:39;;;;;;;21.45;3.45;;;14.70;99.90;;;;;;6212893;23;20024;-92
2021/05/21 16:32:07;;;;;;;24.15;3.42;;;14.70;99.90;;;;;;6211903;23;20021;-92
2021/05/21 16:34:35;;;;;;;18.65;3.63;;;14.80;99.90;;;;;;6211557;23;20403;-89
2021/05/21 16:37:04;;;;;;;21.67;3.58;;;14.90;99.90;;;;;;6212046;23;20340;-90
2021/05/21 16:39:33;;;;;;;17.80;3.35;;;14.80;99.90;;;;;;6212359;23;20473;-91
2021/05/21 16:42:00;;;;;;;21.98;3.22;;;14.80;99.90;;;;;;6215193;23;20074;-93
2021/05/21 16:44:27;;;;;;;17.30;3.33;;;14.80;99.90;;;;;;6217063;23;20021;-91
2021/05/21 16:46:54;;;;;;;11.73;2.60;;;14.60;99.90;;;;;;6214826;23;20021;-90
2021/05/21 16:49:32;;;;;;;13.52;2.83;;;14.50;99.90;;;;;;6217445;23;20051;-89
2021/05/21 16:52:04;;;;;;;20.23;3.22;;;14.40;99.90;;;;;;6217246;23;20016;-87
2021/05/21 16:54:31;;;;;;;15.73;3.38;;;14.40;99.90;;;;;;6218001;23;20079;-90
2021/05/21 16:56:59;;;;;;;16.27;3.33;;;14.40;99.90;;;;;;6220819;23;20017;-91
2021/05/21 16:59:27;;;;;;;20.08;3.53;;;14.40;99.90;;;;;;6222059;23;20024;-92
2021/05/21 17:01:55;;;;;;;21.08;3.25;;;14.40;99.90;;;;;;6219238;23;20020;-92
2021/05/21 17:04:23;;;;;;;14.20;3.03;;;14.50;99.90;;;;;;6220247;23;20360;-91
2021/05/21 17:06:51;;;;;;;16.92;3.30;;;14.70;99.90;;;;;;6220860;23;20020;-91
2021/05/21 17:09:22;;;;;;;19.55;3.42;;;14.70;99.90;;;;;;6219254;23;20024;-88
2021/05/21 17:11:52;;;;;;;15.60;3.38;;;14.80;99.90;;;;;;6220377;23;20016;-92
2021/05/21 17:14:24;;;;;;;21.83;3.20;;;14.80;99.90;;;;;;6217892;23;20052;-88
2021/05/21 18:02:09;;;;;;;21.58;3.95;;;13.90;99.90;;;;;;6219982;23;20016;-90
2021/05/21 18:12:28;;;;;;;24.63;4.40;;;13.70;99.90;;;;;;6220409;23;20383;-91
2021/05/21 18:26:34;;;;;;;25.13;4.55;;;13.30;99.90;;;;;;6098467;23;20026;-93
2021/05/21 18:49:03;;;;;;;28.42;5.45;;;12.90;99.90;;;;;;6094106;23;20021;-91
2021/05/21 19:02:01;;;;;;;25.00;4.85;;;12.70;99.90;;;;;;6154612;23;20028;-90
2021/05/21 19:04:31;;;;;;;29.88;4.75;;;12.60;99.90;;;;;;6126459;23;20021;-89
2021/05/21 19:07:41;;;;;;;26.15;4.50;;;12.70;99.90;;;;;;6090172;23;20543;-87
2021/05/21 19:10:07;;;;;;;22.88;4.07;;;12.70;99.90;;;;;;6144525;23;20021;-89
2021/05/21 19:13:00;;;;;;;29.08;4.70;;;12.70;99.90;;;;;;6126775;23;20020;-89
2021/05/21 19:18:12;;;;;;;22.20;5.13;;;12.60;99.90;;;;;;6153997;23;20013;-87
2021/05/21 19:23:26;;;;;;;21.75;4.10;;;12.40;99.90;;;;;;6215501;23;20124;-90
2021/05/21 19:25:54;;;;;;;21.98;5.07;;;12.30;99.90;;;;;;6217337;23;20020;-92
2021/05/21 19:34:07;;;;;;;20.48;4.10;;;12.20;99.90;;;;;;6124687;23;20054;-92
2021/05/21 20:13:27;;;;;;;26.33;4.82;;;11.10;99.90;;;;;;6091314;23;20030;-89
2021/05/21 20:16:02;;;;;;;33.10;5.68;;;11.10;99.90;;;;;;6091403;23;20023;-90
2021/05/21 20:18:31;;;;;;;27.27;4.10;;;11.10;99.90;;;;;;6091075;23;20538;-86
2021/05/21 20:20:58;;;;;;;39.78;4.78;;;11.10;99.90;;;;;;6092314;23;20073;-87
2021/05/21 20:23:25;;;;;;;30.45;5.45;;;11.10;99.90;;;;;;6092256;23;20015;-88
2021/05/21 20:26:00;;;;;;;37.75;4.93;;;11.10;99.90;;;;;;6093347;23;20549;-86
2021/05/21 20:28:36;;;;;;;38.45;5.00;;;11.10;99.90;;;;;;6092910;23;20015;-87
2021/05/21 20:56:04;;;;;;;28.17;5.22;;;11.20;99.90;;;;;;6214985;23;20028;-87
2021/05/21 21:06:30;;;;;;;25.23;3.83;;;11.10;99.90;;;;;;6216513;23;20321;-95
2021/05/21 21:09:01;;;;;;;11.63;2.40;;;11.00;99.90;;;;;;6215058;23;20344;-94
2021/05/21 21:11:45;;;;;;;12.98;2.40;;;10.80;99.90;;;;;;6214439;23;20444;-93
2021/05/21 21:14:34;;;;;;;17.10;2.75;;;10.60;99.90;;;;;;6214485;23;20024;-91
2021/05/21 21:19:49;;;;;;;16.50;2.70;;;10.40;99.90;;;;;;6215997;23;20082;-92
2021/05/21 21:38:23;;;;;;;29.70;4.70;;;10.20;99.90;;;;;;6214982;23;20337;-90
2021/05/21 21:59:51;;;;;;;31.70;4.97;;;10.30;99.90;;;;;;6214955;23;20024;-92
2021/05/21 22:02:29;;;;;;;32.80;4.28;;;10.30;99.90;;;;;;6215047;23;20472;-91
2021/05/21 22:25:09;;;;;;;31.08;3.90;;;10.50;99.90;;;;;;6215361;23;20467;-89
2021/05/21 22:27:37;;;;;;;26.38;3.95;;;10.50;99.90;;;;;;6215011;23;20016;-91
2021/05/21 22:30:07;;;;;;;18.85;2.88;;;10.50;99.90;;;;;;6213887;23;20398;-89
2021/05/21 22:32:34;;;;;;;18.05;3.28;;;10.50;99.90;;;;;;6214526;23;20044;-91
2021/05/21 22:35:05;;;;;;;17.77;2.42;;;10.40;99.90;;;;;;6214047;23;20020;-92
2021/05/21 22:37:33;;;;;;;23.30;3.22;;;10.40;99.90;;;;;;6213434;23;20016;-93
2021/05/21 22:40:00;;;;;;;18.17;2.53;;;10.40;99.90;;;;;;6214352;23;20448;-91
2021/05/21 22:42:27;;;;;;;28.33;3.20;;;10.40;99.90;;;;;;6214550;23;20025;-93
2021/05/21 22:44:55;;;;;;;25.73;3.58;;;10.30;99.90;;;;;;6214553;23;20384;-91
2021/05/21 22:47:22;;;;;;;35.45;4.03;;;10.30;99.90;;;;;;6215073;23;20024;-91
2021/05/21 22:50:04;;;;;;;32.10;3.58;;;10.30;99.90;;;;;;6215163;23;20012;-93
2021/05/21 22:52:31;;;;;;;36.28;4.78;;;10.30;99.90;;;;;;6214814;23;20078;-89
2021/05/21 22:55:00;;;;;;;30.67;3.78;;;10.30;99.90;;;;;;6214400;23;20017;-90
2021/05/21 22:57:27;;;;;;;27.55;3.83;;;10.30;99.90;;;;;;6214100;23;20084;-91
2021/05/21 22:59:54;;;;;;;33.95;4.65;;;10.30;99.90;;;;;;6215629;23;20436;-89
2021/05/21 23:02:28;;;;;;;29.20;4.10;;;10.30;99.90;;;;;;6214099;23;20029;-93
2021/05/21 23:04:55;;;;;;;27.30;3.65;;;10.40;99.90;;;;;;6214858;23;20032;-92
2021/05/21 23:07:22;;;;;;;32.30;4.25;;;10.30;99.90;;;;;;6214181;23;20090;-93
2021/05/21 23:09:49;;;;;;;25.75;3.65;;;10.30;99.90;;;;;;6216106;23;20017;-90
2021/05/21 23:12:16;;;;;;;27.63;3.83;;;10.30;99.90;;;;;;6214353;23;20318;-89
2021/05/21 23:14:44;;;;;;;28.40;4.20;;;10.30;99.90;;;;;;6215803;23;20091;-91
2021/05/21 23:17:11;;;;;;;26.50;3.75;;;10.40;99.90;;;;;;6213953;23;20086;-90
2021/05/21 23:19:38;;;;;;;29.83;4.28;;;10.30;99.90;;;;;;6214566;23;20025;-89
2021/05/21 23:22:05;;;;;;;35.33;4.97;;;10.30;99.90;;;;;;6213954;23;20016;-92
2021/05/21 23:24:32;;;;;;;27.05;4.07;;;10.30;99.90;;;;;;6215773;23;20066;-89
2021/05/21 23:26:59;;;;;;;24.38;3.38;;;10.30;99.90;;;;;;6215882;23;20071;-90
2021/05/21 23:29:26;;;;;;;28.60;3.40;;;10.30;99.90;;;;;;6215301;23;20400;-90
2021/05/21 23:31:53;;;;;;;24.65;3.20;;;10.20;99.90;;;;;;6214571;23;20083;-88
2021/05/21 23:34:20;;;;;;;30.98;4.80;;;10.30;99.90;;;;;;6213803;23;20027;-87
2021/05/21 23:36:47;;;;;;;26.25;4.13;;;10.20;99.90;;;;;;6215417;23;20016;-90
2021/05/21 23:39:14;;;;;;;25.58;3.97;;;10.20;99.90;;;;;;6213405;23;20063;-89
2021/05/21 23:41:41;;;;;;;27.85;3.88;;;10.20;99.90;;;;;;6214239;23;20526;-90
2021/05/21 23:44:08;;;;;;;17.05;2.95;;;10.20;99.90;;;;;;6213249;23;20017;-90
2021/05/21 23:46:35;;;;;;;29.83;4.05;;;10.20;99.90;;;;;;6213929;23;20019;-88
2021/05/21 23:49:02;;;;;;;29.95;4.00;;;10.30;99.90;;;;;;6215453;23;20396;-89
2021/05/21 23:51:29;;;;;;;27.90;3.78;;;10.30;99.90;;;;;;6215479;23;20016;-90
2021/05/21 23:53:56;;;;;;;29.25;4.68;;;10.30;99.90;;;;;;6214186;23;20329;-88
2021/05/21 23:56:23;;;;;;;28.77;4.15;;;10.30;99.90;;;;;;6213276;23;20028;-89
2021/05/21 23:58:50;;;;;;;27.88;3.47;;;10.30;99.90;;;;;;6214247;23;20020;-89
